sensor_id;sensor_type;location;lat;lon;timestamp;temperature;humidity
36660;DHT22;22654;51.054;3.654;2023-02-28T00:00:25;2.00;99.90
36660;DHT22;22654;51.054;3.654;2023-02-28T00:02:51;1.90;99.90
36660;DHT22;22654;51.054;3.654;2023-02-28T00:05:18;2.00;99.90
36660;DHT22;22654;51.054;3.654;2023-02-28T00:07:44;2.00;99.90
36660;DHT22;22654;51.054;3.654;2023-02-28T00:10:11;1.90;99.90
36660;DHT22;22654;51.054;3.654;2023-02-28T00:12:37;1.80;99.90
36660;DHT22;22654;51.054;3.654;2023-02-28T00:15:07;1.70;99.90
36660;DHT22;22654;51.054;3.654;2023-02-28T00:17:33;1.70;99.90
36660;DHT22;22654;51.054;3.654;2023-02-28T00:19:59;1.50;99.90
36660;DHT22;22654;51.054;3.654;2023-02-28T00:22:37;1.60;99.90
36660;DHT22;22654;51.054;3.654;2023-02-28T00:25:03;1.80;99.90
36660;DHT22;22654;51.054;3.654;2023-02-28T00:27:30;1.80;99.90
36660;DHT22;22654;51.054;3.654;2023-02-28T00:29:56;1.80;99.90
36660;DHT22;22654;51.054;3.654;2023-02-28T00:32:21;1.80;99.90
36660;DHT22;22654;51.054;3.654;2023-02-28T00:34:47;1.80;99.90
36660;DHT22;22654;51.054;3.654;2023-02-28T00:37:14;1.80;99.90
36660;DHT22;22654;51.054;3.654;2023-02-28T00:39:40;1.80;99.90
36660;DHT22;22654;51.054;3.654;2023-02-28T00:42:06;1.70;99.90
36660;DHT22;22654;51.054;3.654;2023-02-28T00:44:33;1.70;99.90
36660;DHT22;22654;51.054;3.654;2023-02-28T00:46:59;1.40;99.90
36660;DHT22;22654;51.054;3.654;2023-02-28T00:49:26;1.30;99.90
36660;DHT22;22654;51.054;3.654;2023-02-28T00:51:52;1.20;99.90
36660;DHT22;22654;51.054;3.654;2023-02-28T00:54:18;1.00;99.90
36660;DHT22;22654;51.054;3.654;2023-02-28T00:56:46;1.00;99.90
36660;DHT22;22654;51.054;3.654;2023-02-28T00:59:13;1.20;99.90
36660;DHT22;22654;51.054;3.654;2023-02-28T01:01:39;1.40;99.90
36660;DHT22;22654;51.054;3.654;2023-02-28T01:04:05;1.30;99.90
36660;DHT22;22654;51.054;3.654;2023-02-28T01:06:31;1.30;99.90
36660;DHT22;22654;51.054;3.654;2023-02-28T01:08:57;1.40;99.90
36660;DHT22;22654;51.054;3.654;2023-02-28T01:11:23;1.50;99.90
36660;DHT22;22654;51.054;3.654;2023-02-28T01:13:50;1.40;99.90
36660;DHT22;22654;51.054;3.654;2023-02-28T01:16:16;1.50;99.90
36660;DHT22;22654;51.054;3.654;2023-02-28T01:18:42;1.50;99.90
36660;DHT22;22654;51.054;3.654;2023-02-28T01:21:12;1.50;99.90
36660;DHT22;22654;51.054;3.654;2023-02-28T01:23:38;1.50;99.90
36660;DHT22;22654;51.054;3.654;2023-02-28T01:26:25;1.60;99.90
36660;DHT22;22654;51.054;3.654;2023-02-28T01:28:51;1.70;99.90
36660;DHT22;22654;51.054;3.654;2023-02-28T01:31:17;1.60;99.90
36660;DHT22;22654;51.054;3.654;2023-02-28T01:33:43;1.60;99.90
36660;DHT22;22654;51.054;3.654;2023-02-28T01:36:17;1.30;99.90
36660;DHT22;22654;51.054;3.654;2023-02-28T01:38:43;1.20;99.90
36660;DHT22;22654;51.054;3.654;2023-02-28T01:41:09;1.00;99.90
36660;DHT22;22654;51.054;3.654;2023-02-28T01:46:07;0.60;99.90
36660;DHT22;22654;51.054;3.654;2023-02-28T01:48:34;0.30;99.90
36660;DHT22;22654;51.054;3.654;2023-02-28T01:51:03;0.20;99.90
36660;DHT22;22654;51.054;3.654;2023-02-28T01:53:34;0.10;99.90
36660;DHT22;22654;51.054;3.654;2023-02-28T01:56:03;0.00;99.90
36660;DHT22;22654;51.054;3.654;2023-02-28T01:58:29;0.10;99.90
36660;DHT22;22654;51.054;3.654;2023-02-28T02:00:56;0.40;99.90
36660;DHT22;22654;51.054;3.654;2023-02-28T02:03:22;0.70;99.90
36660;DHT22;22654;51.054;3.654;2023-02-28T02:05:49;1.00;99.90
36660;DHT22;22654;51.054;3.654;2023-02-28T02:08:17;1.00;99.90
36660;DHT22;22654;51.054;3.654;2023-02-28T02:10:44;0.80;99.90
36660;DHT22;22654;51.054;3.654;2023-02-28T02:18:54;0.90;99.90
36660;DHT22;22654;51.054;3.654;2023-02-28T02:29:22;0.90;99.90
36660;DHT22;22654;51.054;3.654;2023-02-28T02:34:51;1.00;99.90
36660;DHT22;22654;51.054;3.654;2023-02-28T02:40:04;1.00;99.90
36660;DHT22;22654;51.054;3.654;2023-02-28T02:42:45;1.10;99.90
36660;DHT22;22654;51.054;3.654;2023-02-28T02:45:23;0.80;99.90
36660;DHT22;22654;51.054;3.654;2023-02-28T02:47:53;0.80;99.90
36660;DHT22;22654;51.054;3.654;2023-02-28T02:50:33;1.00;99.90
36660;DHT22;22654;51.054;3.654;2023-02-28T02:53:00;0.80;99.90
36660;DHT22;22654;51.054;3.654;2023-02-28T02:55:28;0.90;99.90
36660;DHT22;22654;51.054;3.654;2023-02-28T02:57:59;0.90;99.90
36660;DHT22;22654;51.054;3.654;2023-02-28T03:00:26;1.10;99.90
36660;DHT22;22654;51.054;3.654;2023-02-28T03:02:55;1.20;99.90
36660;DHT22;22654;51.054;3.654;2023-02-28T03:05:29;1.20;99.90
36660;DHT22;22654;51.054;3.654;2023-02-28T03:07:57;1.20;99.90
36660;DHT22;22654;51.054;3.654;2023-02-28T03:10:27;1.30;99.90
36660;DHT22;22654;51.054;3.654;2023-02-28T03:12:57;0.90;99.90
36660;DHT22;22654;51.054;3.654;2023-02-28T03:18:32;0.80;99.90
36660;DHT22;22654;51.054;3.654;2023-02-28T03:23:48;0.90;99.90
36660;DHT22;22654;51.054;3.654;2023-02-28T03:26:26;0.80;99.90
36660;DHT22;22654;51.054;3.654;2023-02-28T03:28:54;0.70;99.90
36660;DHT22;22654;51.054;3.654;2023-02-28T03:31:29;0.50;99.90
36660;DHT22;22654;51.054;3.654;2023-02-28T03:34:29;0.80;99.90
36660;DHT22;22654;51.054;3.654;2023-02-28T03:36:48;1.20;99.90
36660;DHT22;22654;51.054;3.654;2023-02-28T03:39:16;1.10;99.90
36660;DHT22;22654;51.054;3.654;2023-02-28T03:41:45;1.00;99.90
36660;DHT22;22654;51.054;3.654;2023-02-28T03:44:20;1.20;99.90
36660;DHT22;22654;51.054;3.654;2023-02-28T03:46:49;1.50;99.90
36660;DHT22;22654;51.054;3.654;2023-02-28T03:49:19;1.50;99.90
36660;DHT22;22654;51.054;3.654;2023-02-28T03:51:47;1.60;99.90
36660;DHT22;22654;51.054;3.654;2023-02-28T03:54:22;1.60;99.90
36660;DHT22;22654;51.054;3.654;2023-02-28T03:56:54;1.60;99.90
36660;DHT22;22654;51.054;3.654;2023-02-28T03:59:26;1.50;99.90
36660;DHT22;22654;51.054;3.654;2023-02-28T04:01:52;1.60;99.90
36660;DHT22;22654;51.054;3.654;2023-02-28T04:04:20;1.70;99.90
36660;DHT22;22654;51.054;3.654;2023-02-28T04:06:46;1.90;99.90
36660;DHT22;22654;51.054;3.654;2023-02-28T04:09:14;1.90;99.90
36660;DHT22;22654;51.054;3.654;2023-02-28T04:11:44;2.10;99.90
36660;DHT22;22654;51.054;3.654;2023-02-28T04:14:10;2.10;99.90
36660;DHT22;22654;51.054;3.654;2023-02-28T04:16:37;2.00;99.90
36660;DHT22;22654;51.054;3.654;2023-02-28T04:19:04;2.00;99.90
36660;DHT22;22654;51.054;3.654;2023-02-28T04:21:35;2.10;99.90
36660;DHT22;22654;51.054;3.654;2023-02-28T04:24:02;2.10;99.90
36660;DHT22;22654;51.054;3.654;2023-02-28T04:26:31;2.10;99.90
36660;DHT22;22654;51.054;3.654;2023-02-28T04:28:58;2.10;99.90
36660;DHT22;22654;51.054;3.654;2023-02-28T04:31:24;2.10;99.90
36660;DHT22;22654;51.054;3.654;2023-02-28T04:33:49;2.10;99.90
36660;DHT22;22654;51.054;3.654;2023-02-28T04:36:15;2.10;99.90
36660;DHT22;22654;51.054;3.654;2023-02-28T04:38:43;2.00;99.90
36660;DHT22;22654;51.054;3.654;2023-02-28T04:41:09;2.00;99.90
36660;DHT22;22654;51.054;3.654;2023-02-28T04:43:34;2.00;99.90
36660;DHT22;22654;51.054;3.654;2023-02-28T04:46:01;2.00;99.90
36660;DHT22;22654;51.054;3.654;2023-02-28T04:48:27;2.10;99.90
36660;DHT22;22654;51.054;3.654;2023-02-28T04:50:53;2.10;99.90
36660;DHT22;22654;51.054;3.654;2023-02-28T04:53:19;2.20;99.90
36660;DHT22;22654;51.054;3.654;2023-02-28T04:55:45;2.30;99.90
36660;DHT22;22654;51.054;3.654;2023-02-28T04:58:11;2.40;99.90
36660;DHT22;22654;51.054;3.654;2023-02-28T05:00:37;2.50;99.90
36660;DHT22;22654;51.054;3.654;2023-02-28T05:03:03;2.60;99.90
36660;DHT22;22654;51.054;3.654;2023-02-28T05:05:29;2.80;99.90
36660;DHT22;22654;51.054;3.654;2023-02-28T05:07:54;2.80;99.90
36660;DHT22;22654;51.054;3.654;2023-02-28T05:10:21;2.80;99.90
36660;DHT22;22654;51.054;3.654;2023-02-28T05:12:47;2.80;99.90
36660;DHT22;22654;51.054;3.654;2023-02-28T05:15:14;2.70;99.90
36660;DHT22;22654;51.054;3.654;2023-02-28T05:17:40;2.70;99.90
36660;DHT22;22654;51.054;3.654;2023-02-28T05:20:06;2.80;99.90
36660;DHT22;22654;51.054;3.654;2023-02-28T05:22:32;2.80;99.90
36660;DHT22;22654;51.054;3.654;2023-02-28T05:24:58;2.90;99.90
36660;DHT22;22654;51.054;3.654;2023-02-28T05:27:23;2.90;99.90
36660;DHT22;22654;51.054;3.654;2023-02-28T05:29:50;2.90;99.90
36660;DHT22;22654;51.054;3.654;2023-02-28T05:32:16;3.00;99.90
36660;DHT22;22654;51.054;3.654;2023-02-28T05:34:41;3.10;99.90
36660;DHT22;22654;51.054;3.654;2023-02-28T05:37:13;3.10;99.90
36660;DHT22;22654;51.054;3.654;2023-02-28T05:39:39;3.20;99.90
36660;DHT22;22654;51.054;3.654;2023-02-28T05:42:05;3.20;99.90
36660;DHT22;22654;51.054;3.654;2023-02-28T05:44:32;3.40;99.90
36660;DHT22;22654;51.054;3.654;2023-02-28T05:46:57;3.40;99.90
36660;DHT22;22654;51.054;3.654;2023-02-28T05:49:23;3.30;99.90
36660;DHT22;22654;51.054;3.654;2023-02-28T05:51:49;3.30;99.90
36660;DHT22;22654;51.054;3.654;2023-02-28T05:54:17;3.30;99.90
36660;DHT22;22654;51.054;3.654;2023-02-28T05:56:44;3.40;99.90
36660;DHT22;22654;51.054;3.654;2023-02-28T05:59:14;3.30;99.90
36660;DHT22;22654;51.054;3.654;2023-02-28T06:01:40;3.20;99.90
36660;DHT22;22654;51.054;3.654;2023-02-28T06:04:07;3.10;99.90
36660;DHT22;22654;51.054;3.654;2023-02-28T06:06:33;3.30;99.90
36660;DHT22;22654;51.054;3.654;2023-02-28T06:09:03;3.30;99.90
36660;DHT22;22654;51.054;3.654;2023-02-28T06:11:29;3.30;99.90
36660;DHT22;22654;51.054;3.654;2023-02-28T06:13:55;3.40;99.90
36660;DHT22;22654;51.054;3.654;2023-02-28T06:16:22;3.50;99.90
36660;DHT22;22654;51.054;3.654;2023-02-28T06:18:47;3.50;99.90
36660;DHT22;22654;51.054;3.654;2023-02-28T06:21:13;3.40;99.90
36660;DHT22;22654;51.054;3.654;2023-02-28T06:23:39;3.40;99.90
36660;DHT22;22654;51.054;3.654;2023-02-28T06:26:05;3.40;99.90
36660;DHT22;22654;51.054;3.654;2023-02-28T06:28:31;3.40;99.90
36660;DHT22;22654;51.054;3.654;2023-02-28T06:30:57;3.30;99.90
36660;DHT22;22654;51.054;3.654;2023-02-28T06:33:23;3.30;99.90
36660;DHT22;22654;51.054;3.654;2023-02-28T06:35:52;3.20;99.90
36660;DHT22;22654;51.054;3.654;2023-02-28T06:38:18;3.20;99.90
36660;DHT22;22654;51.054;3.654;2023-02-28T06:40:44;3.30;99.90
36660;DHT22;22654;51.054;3.654;2023-02-28T06:43:10;3.40;99.90
36660;DHT22;22654;51.054;3.654;2023-02-28T06:45:42;3.40;99.90
36660;DHT22;22654;51.054;3.654;2023-02-28T06:48:08;3.40;99.90
36660;DHT22;22654;51.054;3.654;2023-02-28T06:50:35;3.30;99.90
36660;DHT22;22654;51.054;3.654;2023-02-28T06:53:00;3.30;99.90
36660;DHT22;22654;51.054;3.654;2023-02-28T06:55:26;3.20;99.90
36660;DHT22;22654;51.054;3.654;2023-02-28T06:57:52;3.10;99.90
36660;DHT22;22654;51.054;3.654;2023-02-28T07:00:17;3.10;99.90
36660;DHT22;22654;51.054;3.654;2023-02-28T07:02:43;3.20;99.90
36660;DHT22;22654;51.054;3.654;2023-02-28T07:05:10;3.20;99.90
36660;DHT22;22654;51.054;3.654;2023-02-28T07:07:36;3.30;99.90
36660;DHT22;22654;51.054;3.654;2023-02-28T07:10:04;3.40;99.90
36660;DHT22;22654;51.054;3.654;2023-02-28T07:12:29;3.50;99.90
36660;DHT22;22654;51.054;3.654;2023-02-28T07:14:55;3.60;99.90
36660;DHT22;22654;51.054;3.654;2023-02-28T07:17:21;3.60;99.90
36660;DHT22;22654;51.054;3.654;2023-02-28T07:19:47;3.80;99.90
36660;DHT22;22654;51.054;3.654;2023-02-28T07:22:12;3.70;99.90
36660;DHT22;22654;51.054;3.654;2023-02-28T07:24:38;3.80;99.90
36660;DHT22;22654;51.054;3.654;2023-02-28T07:27:04;3.90;99.90
36660;DHT22;22654;51.054;3.654;2023-02-28T07:29:29;3.90;99.90
36660;DHT22;22654;51.054;3.654;2023-02-28T07:31:55;3.80;99.90
36660;DHT22;22654;51.054;3.654;2023-02-28T07:34:21;3.70;99.90
36660;DHT22;22654;51.054;3.654;2023-02-28T07:36:47;3.50;99.90
36660;DHT22;22654;51.054;3.654;2023-02-28T07:39:13;3.50;99.90
36660;DHT22;22654;51.054;3.654;2023-02-28T07:41:39;3.50;99.90
36660;DHT22;22654;51.054;3.654;2023-02-28T07:44:09;3.50;99.90
36660;DHT22;22654;51.054;3.654;2023-02-28T07:46:35;3.60;99.90
36660;DHT22;22654;51.054;3.654;2023-02-28T07:49:01;3.70;99.90
36660;DHT22;22654;51.054;3.654;2023-02-28T07:51:28;3.70;99.90
36660;DHT22;22654;51.054;3.654;2023-02-28T07:53:54;3.90;99.90
36660;DHT22;22654;51.054;3.654;2023-02-28T07:56:20;3.90;99.90
36660;DHT22;22654;51.054;3.654;2023-02-28T07:58:46;3.90;99.90
36660;DHT22;22654;51.054;3.654;2023-02-28T08:01:11;4.00;99.90
36660;DHT22;22654;51.054;3.654;2023-02-28T08:03:37;4.20;99.90
36660;DHT22;22654;51.054;3.654;2023-02-28T08:06:04;4.00;99.90
36660;DHT22;22654;51.054;3.654;2023-02-28T08:08:30;3.70;99.90
36660;DHT22;22654;51.054;3.654;2023-02-28T08:10:59;3.70;99.90
36660;DHT22;22654;51.054;3.654;2023-02-28T08:13:26;3.70;99.90
36660;DHT22;22654;51.054;3.654;2023-02-28T08:15:53;3.80;99.90
36660;DHT22;22654;51.054;3.654;2023-02-28T08:18:19;3.80;99.90
36660;DHT22;22654;51.054;3.654;2023-02-28T08:20:45;3.90;99.90
36660;DHT22;22654;51.054;3.654;2023-02-28T08:23:11;3.80;99.90
36660;DHT22;22654;51.054;3.654;2023-02-28T08:25:36;3.90;99.90
36660;DHT22;22654;51.054;3.654;2023-02-28T08:28:02;3.90;99.90
36660;DHT22;22654;51.054;3.654;2023-02-28T08:30:28;4.10;99.90
36660;DHT22;22654;51.054;3.654;2023-02-28T08:32:54;4.00;99.90
36660;DHT22;22654;51.054;3.654;2023-02-28T08:35:20;3.80;99.90
36660;DHT22;22654;51.054;3.654;2023-02-28T08:37:49;3.80;99.90
36660;DHT22;22654;51.054;3.654;2023-02-28T08:40:15;3.90;99.90
36660;DHT22;22654;51.054;3.654;2023-02-28T08:42:44;4.00;99.90
36660;DHT22;22654;51.054;3.654;2023-02-28T08:45:10;3.80;99.90
36660;DHT22;22654;51.054;3.654;2023-02-28T08:47:36;3.70;99.90
36660;DHT22;22654;51.054;3.654;2023-02-28T08:50:01;3.70;99.90
36660;DHT22;22654;51.054;3.654;2023-02-28T08:52:27;3.80;99.90
36660;DHT22;22654;51.054;3.654;2023-02-28T08:54:53;3.80;99.90
36660;DHT22;22654;51.054;3.654;2023-02-28T08:57:19;3.90;99.90
36660;DHT22;22654;51.054;3.654;2023-02-28T08:59:44;3.90;99.90
36660;DHT22;22654;51.054;3.654;2023-02-28T09:02:12;3.70;99.90
36660;DHT22;22654;51.054;3.654;2023-02-28T09:04:38;3.60;99.90
36660;DHT22;22654;51.054;3.654;2023-02-28T09:07:03;3.60;99.90
36660;DHT22;22654;51.054;3.654;2023-02-28T09:09:29;3.70;99.90
36660;DHT22;22654;51.054;3.654;2023-02-28T09:11:55;3.80;99.90
36660;DHT22;22654;51.054;3.654;2023-02-28T09:14:21;3.80;99.90
36660;DHT22;22654;51.054;3.654;2023-02-28T09:16:47;3.80;99.90
36660;DHT22;22654;51.054;3.654;2023-02-28T09:19:13;3.90;99.90
36660;DHT22;22654;51.054;3.654;2023-02-28T09:21:39;3.90;99.90
36660;DHT22;22654;51.054;3.654;2023-02-28T09:24:05;4.00;99.90
36660;DHT22;22654;51.054;3.654;2023-02-28T09:26:31;3.90;99.90
36660;DHT22;22654;51.054;3.654;2023-02-28T09:28:57;3.70;99.90
36660;DHT22;22654;51.054;3.654;2023-02-28T09:31:25;3.70;99.90
36660;DHT22;22654;51.054;3.654;2023-02-28T09:33:52;3.90;99.90
36660;DHT22;22654;51.054;3.654;2023-02-28T09:36:18;4.20;99.90
36660;DHT22;22654;51.054;3.654;2023-02-28T09:38:45;4.30;99.90
36660;DHT22;22654;51.054;3.654;2023-02-28T09:41:19;4.50;99.90
36660;DHT22;22654;51.054;3.654;2023-02-28T09:43:47;4.40;99.90
36660;DHT22;22654;51.054;3.654;2023-02-28T09:46:25;4.40;99.90
36660;DHT22;22654;51.054;3.654;2023-02-28T09:48:52;4.30;99.90
36660;DHT22;22654;51.054;3.654;2023-02-28T09:53:59;4.40;99.90
36660;DHT22;22654;51.054;3.654;2023-02-28T09:56:33;4.30;99.90
36660;DHT22;22654;51.054;3.654;2023-02-28T09:59:25;4.50;99.90
36660;DHT22;22654;51.054;3.654;2023-02-28T10:02:00;4.80;99.90
36660;DHT22;22654;51.054;3.654;2023-02-28T10:07:07;4.50;99.90
36660;DHT22;22654;51.054;3.654;2023-02-28T10:09:42;4.30;99.90
36660;DHT22;22654;51.054;3.654;2023-02-28T10:12:10;4.30;99.90
36660;DHT22;22654;51.054;3.654;2023-02-28T10:14:36;4.50;99.90
36660;DHT22;22654;51.054;3.654;2023-02-28T10:17:12;4.50;99.90
36660;DHT22;22654;51.054;3.654;2023-02-28T10:20:21;4.30;99.90
36660;DHT22;22654;51.054;3.654;2023-02-28T10:25:05;4.50;99.90
36660;DHT22;22654;51.054;3.654;2023-02-28T10:27:40;4.60;99.90
36660;DHT22;22654;51.054;3.654;2023-02-28T10:30:09;4.40;99.90
36660;DHT22;22654;51.054;3.654;2023-02-28T10:32:36;4.50;99.90
36660;DHT22;22654;51.054;3.654;2023-02-28T10:35:14;4.60;99.90
36660;DHT22;22654;51.054;3.654;2023-02-28T10:37:41;4.70;99.90
36660;DHT22;22654;51.054;3.654;2023-02-28T10:40:29;4.70;99.90
36660;DHT22;22654;51.054;3.654;2023-02-28T10:42:57;4.90;99.90
36660;DHT22;22654;51.054;3.654;2023-02-28T10:45:23;5.10;99.90
36660;DHT22;22654;51.054;3.654;2023-02-28T10:47:53;5.20;99.90
36660;DHT22;22654;51.054;3.654;2023-02-28T10:53:13;5.20;99.90
36660;DHT22;22654;51.054;3.654;2023-02-28T10:55:40;5.10;99.90
36660;DHT22;22654;51.054;3.654;2023-02-28T10:58:22;4.90;99.90
36660;DHT22;22654;51.054;3.654;2023-02-28T11:00:48;5.10;99.90
36660;DHT22;22654;51.054;3.654;2023-02-28T11:06:20;5.30;99.90
36660;DHT22;22654;51.054;3.654;2023-02-28T11:08:57;5.20;99.90
36660;DHT22;22654;51.054;3.654;2023-02-28T11:11:24;5.30;99.90
36660;DHT22;22654;51.054;3.654;2023-02-28T11:13:51;5.60;99.90
36660;DHT22;22654;51.054;3.654;2023-02-28T11:16:18;5.80;99.90
36660;DHT22;22654;51.054;3.654;2023-02-28T11:18:51;5.80;99.90
36660;DHT22;22654;51.054;3.654;2023-02-28T11:21:20;5.60;99.90
36660;DHT22;22654;51.054;3.654;2023-02-28T11:23:49;5.70;99.90
36660;DHT22;22654;51.054;3.654;2023-02-28T11:26:16;5.50;99.90
36660;DHT22;22654;51.054;3.654;2023-02-28T11:29:09;5.30;99.90
36660;DHT22;22654;51.054;3.654;2023-02-28T11:31:36;5.50;99.90
36660;DHT22;22654;51.054;3.654;2023-02-28T11:34:10;5.70;99.90
36660;DHT22;22654;51.054;3.654;2023-02-28T11:36:47;5.90;99.90
36660;DHT22;22654;51.054;3.654;2023-02-28T11:39:13;6.00;99.90
36660;DHT22;22654;51.054;3.654;2023-02-28T11:44:20;5.90;99.90
36660;DHT22;22654;51.054;3.654;2023-02-28T11:46:49;5.90;99.90
36660;DHT22;22654;51.054;3.654;2023-02-28T11:54:56;5.90;99.90
36660;DHT22;22654;51.054;3.654;2023-02-28T12:05:34;6.10;99.90
36660;DHT22;22654;51.054;3.654;2023-02-28T12:08:04;6.10;99.90
36660;DHT22;22654;51.054;3.654;2023-02-28T12:10:35;6.10;99.90
36660;DHT22;22654;51.054;3.654;2023-02-28T12:20:41;5.90;99.90
36660;DHT22;22654;51.054;3.654;2023-02-28T12:26:12;5.90;99.90
36660;DHT22;22654;51.054;3.654;2023-02-28T12:28:46;5.90;99.90
36660;DHT22;22654;51.054;3.654;2023-02-28T12:33:40;6.20;99.90
36660;DHT22;22654;51.054;3.654;2023-02-28T12:36:11;5.90;99.90
36660;DHT22;22654;51.054;3.654;2023-02-28T12:38:39;6.00;99.90
36660;DHT22;22654;51.054;3.654;2023-02-28T12:41:13;6.30;99.90
36660;DHT22;22654;51.054;3.654;2023-02-28T12:43:43;6.40;99.90
36660;DHT22;22654;51.054;3.654;2023-02-28T12:46:44;6.30;99.90
36660;DHT22;22654;51.054;3.654;2023-02-28T12:49:25;6.20;99.80
36660;DHT22;22654;51.054;3.654;2023-02-28T12:51:51;6.20;99.40
36660;DHT22;22654;51.054;3.654;2023-02-28T12:54:22;6.20;99.60
36660;DHT22;22654;51.054;3.654;2023-02-28T12:59:34;6.20;98.90
36660;DHT22;22654;51.054;3.654;2023-02-28T13:09:54;6.30;98.50
36660;DHT22;22654;51.054;3.654;2023-02-28T13:12:20;6.40;97.50
36660;DHT22;22654;51.054;3.654;2023-02-28T13:14:48;6.20;97.40
36660;DHT22;22654;51.054;3.654;2023-02-28T13:17:19;6.10;97.80
36660;DHT22;22654;51.054;3.654;2023-02-28T13:24:52;6.30;97.40
36660;DHT22;22654;51.054;3.654;2023-02-28T13:27:31;6.60;96.90
36660;DHT22;22654;51.054;3.654;2023-02-28T13:30:00;6.30;97.00
36660;DHT22;22654;51.054;3.654;2023-02-28T13:32:31;6.20;96.70
36660;DHT22;22654;51.054;3.654;2023-02-28T13:47:38;6.30;95.50
36660;DHT22;22654;51.054;3.654;2023-02-28T13:50:15;6.50;95.20
36660;DHT22;22654;51.054;3.654;2023-02-28T13:55:24;6.40;95.00
36660;DHT22;22654;51.054;3.654;2023-02-28T14:05:38;6.40;94.20
36660;DHT22;22654;51.054;3.654;2023-02-28T14:08:05;6.40;94.00
36660;DHT22;22654;51.054;3.654;2023-02-28T14:10:33;6.30;94.50
36660;DHT22;22654;51.054;3.654;2023-02-28T14:13:01;6.40;94.40
36660;DHT22;22654;51.054;3.654;2023-02-28T14:15:36;6.40;94.20
36660;DHT22;22654;51.054;3.654;2023-02-28T14:18:23;6.30;94.00
36660;DHT22;22654;51.054;3.654;2023-02-28T14:20:52;6.30;94.80
36660;DHT22;22654;51.054;3.654;2023-02-28T14:29:14;6.60;94.00
36660;DHT22;22654;51.054;3.654;2023-02-28T14:34:41;6.50;94.10
36660;DHT22;22654;51.054;3.654;2023-02-28T14:37:19;6.50;94.00
36660;DHT22;22654;51.054;3.654;2023-02-28T14:39:45;6.40;94.30
36660;DHT22;22654;51.054;3.654;2023-02-28T14:44:55;6.20;94.70
36660;DHT22;22654;51.054;3.654;2023-02-28T14:47:28;6.20;95.00
36660;DHT22;22654;51.054;3.654;2023-02-28T14:50:02;6.30;94.60
36660;DHT22;22654;51.054;3.654;2023-02-28T14:52:30;6.40;94.70
36660;DHT22;22654;51.054;3.654;2023-02-28T14:57:29;6.30;94.70
36660;DHT22;22654;51.054;3.654;2023-02-28T15:00:15;6.30;94.40
36660;DHT22;22654;51.054;3.654;2023-02-28T15:02:42;6.30;94.40
36660;DHT22;22654;51.054;3.654;2023-02-28T15:07:46;6.40;94.40
36660;DHT22;22654;51.054;3.654;2023-02-28T15:12:41;6.50;94.10
36660;DHT22;22654;51.054;3.654;2023-02-28T15:15:15;6.40;94.30
36660;DHT22;22654;51.054;3.654;2023-02-28T15:17:42;6.30;94.00
36660;DHT22;22654;51.054;3.654;2023-02-28T15:20:11;6.20;94.50
36660;DHT22;22654;51.054;3.654;2023-02-28T15:22:37;6.20;95.00
36660;DHT22;22654;51.054;3.654;2023-02-28T15:25:04;6.20;94.60
36660;DHT22;22654;51.054;3.654;2023-02-28T15:27:32;6.20;94.80
36660;DHT22;22654;51.054;3.654;2023-02-28T15:29:59;6.30;94.70
36660;DHT22;22654;51.054;3.654;2023-02-28T15:32:36;6.20;94.90
36660;DHT22;22654;51.054;3.654;2023-02-28T15:37:47;5.90;94.90
36660;DHT22;22654;51.054;3.654;2023-02-28T15:40:17;5.80;94.90
36660;DHT22;22654;51.054;3.654;2023-02-28T15:43:03;5.90;95.20
36660;DHT22;22654;51.054;3.654;2023-02-28T15:45:33;6.10;95.20
36660;DHT22;22654;51.054;3.654;2023-02-28T15:48:02;6.10;94.90
36660;DHT22;22654;51.054;3.654;2023-02-28T15:50:28;6.00;95.00
36660;DHT22;22654;51.054;3.654;2023-02-28T15:52:54;6.00;95.30
36660;DHT22;22654;51.054;3.654;2023-02-28T15:55:21;6.00;95.00
36660;DHT22;22654;51.054;3.654;2023-02-28T15:57:48;6.00;94.90
36660;DHT22;22654;51.054;3.654;2023-02-28T16:00:18;5.80;95.00
36660;DHT22;22654;51.054;3.654;2023-02-28T16:02:44;5.80;95.30
36660;DHT22;22654;51.054;3.654;2023-02-28T16:07:39;5.70;95.70
36660;DHT22;22654;51.054;3.654;2023-02-28T16:10:05;5.70;95.90
36660;DHT22;22654;51.054;3.654;2023-02-28T16:12:32;5.70;96.00
36660;DHT22;22654;51.054;3.654;2023-02-28T16:14:59;5.80;95.50
36660;DHT22;22654;51.054;3.654;2023-02-28T16:17:31;5.70;95.40
36660;DHT22;22654;51.054;3.654;2023-02-28T16:19:58;5.70;95.80
36660;DHT22;22654;51.054;3.654;2023-02-28T16:22:24;5.70;95.80
36660;DHT22;22654;51.054;3.654;2023-02-28T16:24:49;5.70;96.20
36660;DHT22;22654;51.054;3.654;2023-02-28T16:27:28;5.60;96.30
36660;DHT22;22654;51.054;3.654;2023-02-28T16:29:55;5.50;96.10
36660;DHT22;22654;51.054;3.654;2023-02-28T16:32:21;5.40;96.40
36660;DHT22;22654;51.054;3.654;2023-02-28T16:34:47;5.40;96.30
36660;DHT22;22654;51.054;3.654;2023-02-28T16:37:13;5.40;96.40
36660;DHT22;22654;51.054;3.654;2023-02-28T16:39:40;5.40;96.60
36660;DHT22;22654;51.054;3.654;2023-02-28T16:42:05;5.30;96.70
36660;DHT22;22654;51.054;3.654;2023-02-28T16:44:33;5.30;96.60
36660;DHT22;22654;51.054;3.654;2023-02-28T16:47:00;5.30;96.60
36660;DHT22;22654;51.054;3.654;2023-02-28T16:49:26;5.30;96.60
36660;DHT22;22654;51.054;3.654;2023-02-28T16:51:53;5.30;96.60
36660;DHT22;22654;51.054;3.654;2023-02-28T16:54:19;5.30;96.60
36660;DHT22;22654;51.054;3.654;2023-02-28T16:56:45;5.40;96.80
36660;DHT22;22654;51.054;3.654;2023-02-28T16:59:12;5.30;96.70
36660;DHT22;22654;51.054;3.654;2023-02-28T17:01:38;5.20;97.10
36660;DHT22;22654;51.054;3.654;2023-02-28T17:04:04;5.10;96.90
36660;DHT22;22654;51.054;3.654;2023-02-28T17:06:29;5.10;97.10
36660;DHT22;22654;51.054;3.654;2023-02-28T17:08:56;5.00;97.40
36660;DHT22;22654;51.054;3.654;2023-02-28T17:11:22;5.10;97.40
36660;DHT22;22654;51.054;3.654;2023-02-28T17:13:49;5.10;97.20
36660;DHT22;22654;51.054;3.654;2023-02-28T17:16:17;5.00;97.50
36660;DHT22;22654;51.054;3.654;2023-02-28T17:18:45;5.00;97.50
36660;DHT22;22654;51.054;3.654;2023-02-28T17:21:15;4.90;97.60
36660;DHT22;22654;51.054;3.654;2023-02-28T17:23:44;4.80;97.70
36660;DHT22;22654;51.054;3.654;2023-02-28T17:26:14;4.80;97.80
36660;DHT22;22654;51.054;3.654;2023-02-28T17:28:40;4.70;97.90
36660;DHT22;22654;51.054;3.654;2023-02-28T17:31:07;4.80;98.00
36660;DHT22;22654;51.054;3.654;2023-02-28T17:33:32;4.80;98.20
36660;DHT22;22654;51.054;3.654;2023-02-28T17:35:58;4.70;98.20
36660;DHT22;22654;51.054;3.654;2023-02-28T17:38:27;4.60;98.50
36660;DHT22;22654;51.054;3.654;2023-02-28T17:40:53;4.60;98.50
36660;DHT22;22654;51.054;3.654;2023-02-28T17:43:25;4.60;98.60
36660;DHT22;22654;51.054;3.654;2023-02-28T17:45:52;4.60;98.80
36660;DHT22;22654;51.054;3.654;2023-02-28T17:48:18;4.50;98.90
36660;DHT22;22654;51.054;3.654;2023-02-28T17:50:43;4.60;98.90
36660;DHT22;22654;51.054;3.654;2023-02-28T17:53:09;4.50;98.90
36660;DHT22;22654;51.054;3.654;2023-02-28T17:55:35;4.50;99.30
36660;DHT22;22654;51.054;3.654;2023-02-28T17:58:01;4.40;99.10
36660;DHT22;22654;51.054;3.654;2023-02-28T18:00:28;4.40;99.20
36660;DHT22;22654;51.054;3.654;2023-02-28T18:02:54;4.30;99.30
36660;DHT22;22654;51.054;3.654;2023-02-28T18:05:20;4.30;99.60